Ridge Wood Heights, FL

9:21 AM EDT on April 23, 2017 (GMT -0400)
| | Change Station

Elev -9999 ft 0.00 °N, 0.00 °E | Updated 0 second ago

Partly Cloudy
Partly Cloudy
°F
Feels Like °F
N
Wind Variable Wind from North
Gusts mph

Today
High -- | Low -- °F
--% Chance of Precip.
Yesterday
High -- | Low -- °F
Precip. -- in
Pressure 29.86 in
Visibility 10.0 miles
Clouds Few 2500 ft
Mostly Cloudy 3300 ft
Mostly Cloudy 4400 ft
Dew Point Not available.
Humidity Not available.
Rainfall --
Snow Depth Not available.
6:57 AM 7:59 PM
Waning Crescent, 12% visible
METAR KSRQ 231253Z 07006KT 10SM FEW025 BKN033 BKN044 23/19 A2987 RMK AO2 SLP112 T02330194
Pressure 29.86 in
Visibility 10.0 miles
Clouds Few 2500 ft
Mostly Cloudy 3300 ft
Mostly Cloudy 4400 ft
Dew Point Not available.
Humidity Not available.
Rainfall --
Snow Depth Not available.
6:57 AM 7:59 PM
Waning Crescent, 12% visible
METAR KSRQ 231253Z 07006KT 10SM FEW025 BKN033 BKN044 23/19 A2987 RMK AO2 SLP112 T02330194

Get Severe Weather Alerts

Thanks for signing up!

Be on the lookout for a verification email in your inbox.

You'll start receiving the daily forecast at 8 AM.

×

10-Day Weather Forecast

Almanac

Astronomy

Apr. 23, 2017 Rise Set
Actual Time
Civil Twilight
Nautical Twilight
Astronomical Twilight
Moon
Length of Visible Light
Length of Day
Tomorrow will be .
, % of the Moon is Illuminated

Today's Extremes

State Highs State Lows

Community

WunderPhotos

WunderBlog® & News

Nearby

Air Quality

  Air Quality AQ Index Pollutant
Not available.

Snow Depth

Station Depth Elevation

Earthquake Activity

City Distance Mag. Time & Date
Minimum magnitude displayed is 2.5.

Coastal Water Temperatures

Place Temperature

Stations

Nearby Weather Stations

Station Location Temp. Windchill Dew Point Humidity Wind Precip. Elev Updated Type
                   

Watches & Warnings

There are currently no watches in effect.